sensor_id;sensor_type;location;lat;lon;timestamp;P1;durP1;ratioP1;P2;durP2;ratioP2
56102;SDS011;41970;48.774;9.280;2023-04-25T00:01:29;3.50;;;2.53;;
56102;SDS011;41970;48.774;9.280;2023-04-25T00:03:55;3.37;;;3.07;;
56102;SDS011;41970;48.774;9.280;2023-04-25T00:06:22;2.93;;;2.70;;
56102;SDS011;41970;48.774;9.280;2023-04-25T00:08:51;2.60;;;2.40;;
56102;SDS011;41970;48.774;9.280;2023-04-25T00:11:18;4.10;;;3.73;;
56102;SDS011;41970;48.774;9.280;2023-04-25T00:13:43;2.67;;;2.40;;
56102;SDS011;41970;48.774;9.280;2023-04-25T00:16:11;2.47;;;2.27;;
56102;SDS011;41970;48.774;9.280;2023-04-25T00:18:39;2.97;;;2.40;;
56102;SDS011;41970;48.774;9.280;2023-04-25T00:21:07;2.87;;;2.30;;
56102;SDS011;41970;48.774;9.280;2023-04-25T00:23:32;2.30;;;2.10;;
56102;SDS011;41970;48.774;9.280;2023-04-25T00:26:00;2.77;;;2.03;;
56102;SDS011;41970;48.774;9.280;2023-04-25T00:28:26;3.73;;;2.37;;
56102;SDS011;41970;48.774;9.280;2023-04-25T00:30:52;2.53;;;2.30;;
56102;SDS011;41970;48.774;9.280;2023-04-25T00:33:17;2.30;;;2.10;;
56102;SDS011;41970;48.774;9.280;2023-04-25T00:35:43;2.37;;;1.97;;
56102;SDS011;41970;48.774;9.280;2023-04-25T00:38:09;2.93;;;2.20;;
56102;SDS011;41970;48.774;9.280;2023-04-25T00:40:34;6.47;;;2.27;;
56102;SDS011;41970;48.774;9.280;2023-04-25T00:43:00;2.27;;;2.00;;
56102;SDS011;41970;48.774;9.280;2023-04-25T00:45:29;2.90;;;2.03;;
56102;SDS011;41970;48.774;9.280;2023-04-25T00:47:55;3.00;;;2.10;;
56102;SDS011;41970;48.774;9.280;2023-04-25T00:50:21;2.40;;;2.10;;
56102;SDS011;41970;48.774;9.280;2023-04-25T00:52:47;2.80;;;2.60;;
56102;SDS011;41970;48.774;9.280;2023-04-25T00:55:13;3.97;;;2.67;;
56102;SDS011;41970;48.774;9.280;2023-04-25T00:57:41;2.50;;;2.30;;
56102;SDS011;41970;48.774;9.280;2023-04-25T01:00:07;5.27;;;3.13;;
56102;SDS011;41970;48.774;9.280;2023-04-25T01:02:38;2.17;;;1.97;;
56102;SDS011;41970;48.774;9.280;2023-04-25T01:05:06;3.30;;;2.60;;
56102;SDS011;41970;48.774;9.280;2023-04-25T01:07:33;2.43;;;2.07;;
56102;SDS011;41970;48.774;9.280;2023-04-25T01:10:03;3.10;;;2.57;;
56102;SDS011;41970;48.774;9.280;2023-04-25T01:12:31;2.97;;;2.33;;
56102;SDS011;41970;48.774;9.280;2023-04-25T01:14:57;4.60;;;2.37;;
56102;SDS011;41970;48.774;9.280;2023-04-25T01:17:22;2.90;;;2.60;;
56102;SDS011;41970;48.774;9.280;2023-04-25T01:19:48;2.90;;;2.70;;
56102;SDS011;41970;48.774;9.280;2023-04-25T01:22:15;2.63;;;2.40;;
56102;SDS011;41970;48.774;9.280;2023-04-25T01:24:42;3.00;;;2.40;;
56102;SDS011;41970;48.774;9.280;2023-04-25T01:27:08;5.37;;;2.30;;
56102;SDS011;41970;48.774;9.280;2023-04-25T01:29:35;3.80;;;2.60;;
56102;SDS011;41970;48.774;9.280;2023-04-25T01:32:02;3.43;;;2.60;;
56102;SDS011;41970;48.774;9.280;2023-04-25T01:34:28;3.03;;;2.70;;
56102;SDS011;41970;48.774;9.280;2023-04-25T01:36:54;5.13;;;2.40;;
56102;SDS011;41970;48.774;9.280;2023-04-25T01:39:20;3.13;;;2.83;;
56102;SDS011;41970;48.774;9.280;2023-04-25T01:41:46;3.70;;;2.90;;
56102;SDS011;41970;48.774;9.280;2023-04-25T01:44:13;3.20;;;2.37;;
56102;SDS011;41970;48.774;9.280;2023-04-25T01:46:39;4.37;;;2.87;;
56102;SDS011;41970;48.774;9.280;2023-04-25T01:49:05;2.30;;;2.10;;
56102;SDS011;41970;48.774;9.280;2023-04-25T01:51:31;2.90;;;2.33;;
56102;SDS011;41970;48.774;9.280;2023-04-25T01:53:57;3.20;;;2.90;;
56102;SDS011;41970;48.774;9.280;2023-04-25T01:56:23;4.80;;;2.43;;
56102;SDS011;41970;48.774;9.280;2023-04-25T01:58:49;4.30;;;3.50;;
56102;SDS011;41970;48.774;9.280;2023-04-25T02:01:16;4.40;;;3.53;;
56102;SDS011;41970;48.774;9.280;2023-04-25T02:03:42;5.50;;;3.03;;
56102;SDS011;41970;48.774;9.280;2023-04-25T02:06:08;4.30;;;2.60;;
56102;SDS011;41970;48.774;9.280;2023-04-25T02:08:34;3.33;;;2.97;;
56102;SDS011;41970;48.774;9.280;2023-04-25T02:11:02;4.50;;;3.50;;
56102;SDS011;41970;48.774;9.280;2023-04-25T02:13:28;7.83;;;3.77;;
56102;SDS011;41970;48.774;9.280;2023-04-25T02:15:53;3.10;;;2.80;;
56102;SDS011;41970;48.774;9.280;2023-04-25T02:18:19;4.57;;;3.37;;
56102;SDS011;41970;48.774;9.280;2023-04-25T02:20:46;3.17;;;2.87;;
56102;SDS011;41970;48.774;9.280;2023-04-25T02:23:11;4.57;;;3.50;;
56102;SDS011;41970;48.774;9.280;2023-04-25T02:25:37;4.40;;;4.00;;
56102;SDS011;41970;48.774;9.280;2023-04-25T02:28:03;3.73;;;3.43;;
56102;SDS011;41970;48.774;9.280;2023-04-25T02:30:29;4.00;;;3.60;;
56102;SDS011;41970;48.774;9.280;2023-04-25T02:32:55;5.17;;;3.50;;
56102;SDS011;41970;48.774;9.280;2023-04-25T02:35:21;3.87;;;3.23;;
56102;SDS011;41970;48.774;9.280;2023-04-25T02:37:47;3.33;;;2.70;;
56102;SDS011;41970;48.774;9.280;2023-04-25T02:40:13;3.10;;;2.70;;
56102;SDS011;41970;48.774;9.280;2023-04-25T02:42:38;3.33;;;3.03;;
56102;SDS011;41970;48.774;9.280;2023-04-25T02:45:04;3.47;;;3.17;;
56102;SDS011;41970;48.774;9.280;2023-04-25T02:47:30;3.23;;;2.93;;
56102;SDS011;41970;48.774;9.280;2023-04-25T02:49:56;4.57;;;4.17;;
56102;SDS011;41970;48.774;9.280;2023-04-25T02:52:22;3.70;;;3.10;;
56102;SDS011;41970;48.774;9.280;2023-04-25T02:54:47;4.33;;;3.23;;
56102;SDS011;41970;48.774;9.280;2023-04-25T02:57:13;4.37;;;3.20;;
56102;SDS011;41970;48.774;9.280;2023-04-25T02:59:39;3.13;;;2.83;;
56102;SDS011;41970;48.774;9.280;2023-04-25T03:02:05;3.90;;;2.60;;
56102;SDS011;41970;48.774;9.280;2023-04-25T03:04:31;4.60;;;2.70;;
56102;SDS011;41970;48.774;9.280;2023-04-25T03:06:58;3.40;;;2.63;;
56102;SDS011;41970;48.774;9.280;2023-04-25T03:09:24;2.93;;;2.50;;
56102;SDS011;41970;48.774;9.280;2023-04-25T03:11:50;3.10;;;2.80;;
56102;SDS011;41970;48.774;9.280;2023-04-25T03:14:16;3.37;;;3.00;;
56102;SDS011;41970;48.774;9.280;2023-04-25T03:16:41;3.20;;;2.70;;
56102;SDS011;41970;48.774;9.280;2023-04-25T03:19:07;3.77;;;3.47;;
56102;SDS011;41970;48.774;9.280;2023-04-25T03:21:33;4.10;;;3.00;;
56102;SDS011;41970;48.774;9.280;2023-04-25T03:24:01;6.27;;;2.80;;
56102;SDS011;41970;48.774;9.280;2023-04-25T03:26:28;3.87;;;2.90;;
56102;SDS011;41970;48.774;9.280;2023-04-25T03:28:54;4.03;;;2.97;;
56102;SDS011;41970;48.774;9.280;2023-04-25T03:31:20;3.40;;;2.50;;
56102;SDS011;41970;48.774;9.280;2023-04-25T03:33:46;3.47;;;3.17;;
56102;SDS011;41970;48.774;9.280;2023-04-25T03:36:12;3.63;;;3.07;;
56102;SDS011;41970;48.774;9.280;2023-04-25T03:38:37;4.83;;;2.57;;
56102;SDS011;41970;48.774;9.280;2023-04-25T03:41:03;2.43;;;2.23;;
56102;SDS011;41970;48.774;9.280;2023-04-25T03:43:29;3.30;;;2.90;;
56102;SDS011;41970;48.774;9.280;2023-04-25T03:45:55;7.10;;;2.50;;
56102;SDS011;41970;48.774;9.280;2023-04-25T03:48:21;2.57;;;2.37;;
56102;SDS011;41970;48.774;9.280;2023-04-25T03:50:47;5.60;;;2.63;;
56102;SDS011;41970;48.774;9.280;2023-04-25T03:53:13;2.77;;;2.57;;
56102;SDS011;41970;48.774;9.280;2023-04-25T03:55:39;8.93;;;7.33;;
56102;SDS011;41970;48.774;9.280;2023-04-25T03:58:05;2.70;;;2.50;;
56102;SDS011;41970;48.774;9.280;2023-04-25T04:00:31;2.93;;;2.50;;
56102;SDS011;41970;48.774;9.280;2023-04-25T04:02:56;3.10;;;2.80;;
56102;SDS011;41970;48.774;9.280;2023-04-25T04:05:22;2.37;;;2.17;;
56102;SDS011;41970;48.774;9.280;2023-04-25T04:07:48;3.03;;;2.83;;
56102;SDS011;41970;48.774;9.280;2023-04-25T04:10:14;3.13;;;2.83;;
56102;SDS011;41970;48.774;9.280;2023-04-25T04:12:39;3.30;;;2.67;;
56102;SDS011;41970;48.774;9.280;2023-04-25T04:15:05;2.50;;;2.30;;
56102;SDS011;41970;48.774;9.280;2023-04-25T04:17:31;3.83;;;2.90;;
56102;SDS011;41970;48.774;9.280;2023-04-25T04:19:57;2.93;;;2.40;;
56102;SDS011;41970;48.774;9.280;2023-04-25T04:22:23;2.90;;;2.60;;
56102;SDS011;41970;48.774;9.280;2023-04-25T04:24:50;3.10;;;2.80;;
56102;SDS011;41970;48.774;9.280;2023-04-25T04:27:18;6.03;;;2.80;;
56102;SDS011;41970;48.774;9.280;2023-04-25T04:29:45;4.40;;;2.53;;
56102;SDS011;41970;48.774;9.280;2023-04-25T04:32:11;4.60;;;3.40;;
56102;SDS011;41970;48.774;9.280;2023-04-25T04:34:38;3.03;;;2.40;;
56102;SDS011;41970;48.774;9.280;2023-04-25T04:37:04;2.90;;;2.70;;
56102;SDS011;41970;48.774;9.280;2023-04-25T04:39:32;3.83;;;2.60;;
56102;SDS011;41970;48.774;9.280;2023-04-25T04:41:58;2.77;;;2.50;;
56102;SDS011;41970;48.774;9.280;2023-04-25T04:44:24;3.97;;;2.67;;
56102;SDS011;41970;48.774;9.280;2023-04-25T04:46:50;4.80;;;2.87;;
56102;SDS011;41970;48.774;9.280;2023-04-25T04:49:16;2.37;;;2.17;;
56102;SDS011;41970;48.774;9.280;2023-04-25T04:51:42;10.10;;;4.97;;
56102;SDS011;41970;48.774;9.280;2023-04-25T04:54:11;3.50;;;2.70;;
56102;SDS011;41970;48.774;9.280;2023-04-25T04:56:37;3.00;;;2.77;;
56102;SDS011;41970;48.774;9.280;2023-04-25T04:59:03;4.83;;;3.30;;
56102;SDS011;41970;48.774;9.280;2023-04-25T05:01:29;4.27;;;3.87;;
56102;SDS011;41970;48.774;9.280;2023-04-25T05:03:55;3.30;;;3.00;;
56102;SDS011;41970;48.774;9.280;2023-04-25T05:06:25;4.27;;;2.90;;
56102;SDS011;41970;48.774;9.280;2023-04-25T05:08:52;6.67;;;3.10;;
56102;SDS011;41970;48.774;9.280;2023-04-25T05:11:18;3.60;;;3.20;;
56102;SDS011;41970;48.774;9.280;2023-04-25T05:13:44;6.53;;;2.97;;
56102;SDS011;41970;48.774;9.280;2023-04-25T05:16:11;3.07;;;2.70;;
56102;SDS011;41970;48.774;9.280;2023-04-25T05:18:37;4.37;;;2.90;;
56102;SDS011;41970;48.774;9.280;2023-04-25T05:21:03;3.93;;;2.93;;
56102;SDS011;41970;48.774;9.280;2023-04-25T05:23:30;7.43;;;4.10;;
56102;SDS011;41970;48.774;9.280;2023-04-25T05:25:56;2.90;;;2.70;;
56102;SDS011;41970;48.774;9.280;2023-04-25T05:28:22;5.33;;;2.60;;
56102;SDS011;41970;48.774;9.280;2023-04-25T05:30:48;5.13;;;3.77;;
56102;SDS011;41970;48.774;9.280;2023-04-25T05:33:13;4.63;;;3.03;;
56102;SDS011;41970;48.774;9.280;2023-04-25T05:35:40;4.70;;;3.23;;
56102;SDS011;41970;48.774;9.280;2023-04-25T05:38:06;3.63;;;2.60;;
56102;SDS011;41970;48.774;9.280;2023-04-25T05:40:31;7.90;;;3.37;;
56102;SDS011;41970;48.774;9.280;2023-04-25T05:42:57;4.37;;;2.90;;
56102;SDS011;41970;48.774;9.280;2023-04-25T05:45:23;6.60;;;3.97;;
56102;SDS011;41970;48.774;9.280;2023-04-25T05:47:48;3.43;;;3.13;;
56102;SDS011;41970;48.774;9.280;2023-04-25T05:50:14;4.50;;;2.77;;
56102;SDS011;41970;48.774;9.280;2023-04-25T05:52:40;3.63;;;3.23;;
56102;SDS011;41970;48.774;9.280;2023-04-25T05:55:06;3.97;;;3.23;;
56102;SDS011;41970;48.774;9.280;2023-04-25T05:57:32;5.00;;;3.30;;
56102;SDS011;41970;48.774;9.280;2023-04-25T05:59:58;3.33;;;2.97;;
56102;SDS011;41970;48.774;9.280;2023-04-25T06:02:24;7.53;;;4.40;;
56102;SDS011;41970;48.774;9.280;2023-04-25T06:04:51;3.13;;;2.83;;
56102;SDS011;41970;48.774;9.280;2023-04-25T06:07:17;3.50;;;2.70;;
56102;SDS011;41970;48.774;9.280;2023-04-25T06:09:43;4.27;;;3.87;;
56102;SDS011;41970;48.774;9.280;2023-04-25T06:12:09;5.50;;;2.90;;
56102;SDS011;41970;48.774;9.280;2023-04-25T06:14:35;3.20;;;2.90;;
56102;SDS011;41970;48.774;9.280;2023-04-25T06:17:01;2.50;;;2.30;;
56102;SDS011;41970;48.774;9.280;2023-04-25T06:19:33;2.90;;;2.33;;
56102;SDS011;41970;48.774;9.280;2023-04-25T06:22:00;3.27;;;2.93;;
56102;SDS011;41970;48.774;9.280;2023-04-25T06:24:26;3.30;;;2.50;;
56102;SDS011;41970;48.774;9.280;2023-04-25T06:26:53;2.90;;;2.60;;
56102;SDS011;41970;48.774;9.280;2023-04-25T06:29:19;4.40;;;2.47;;
56102;SDS011;41970;48.774;9.280;2023-04-25T06:31:45;3.73;;;2.80;;
56102;SDS011;41970;48.774;9.280;2023-04-25T06:34:11;2.77;;;2.50;;
56102;SDS011;41970;48.774;9.280;2023-04-25T06:36:36;2.30;;;2.10;;
56102;SDS011;41970;48.774;9.280;2023-04-25T06:39:02;3.37;;;2.50;;
56102;SDS011;41970;48.774;9.280;2023-04-25T06:41:28;2.97;;;2.77;;
56102;SDS011;41970;48.774;9.280;2023-04-25T06:43:54;2.57;;;2.37;;
56102;SDS011;41970;48.774;9.280;2023-04-25T06:46:19;3.07;;;2.50;;
56102;SDS011;41970;48.774;9.280;2023-04-25T06:48:45;7.70;;;4.00;;
56102;SDS011;41970;48.774;9.280;2023-04-25T06:51:11;5.90;;;3.23;;
56102;SDS011;41970;48.774;9.280;2023-04-25T06:53:38;2.70;;;2.43;;
56102;SDS011;41970;48.774;9.280;2023-04-25T06:56:07;2.90;;;2.60;;
56102;SDS011;41970;48.774;9.280;2023-04-25T06:58:34;13.33;;;2.60;;
56102;SDS011;41970;48.774;9.280;2023-04-25T07:01:01;2.73;;;2.53;;
56102;SDS011;41970;48.774;9.280;2023-04-25T07:03:27;2.37;;;2.17;;
56102;SDS011;41970;48.774;9.280;2023-04-25T07:05:52;3.20;;;2.90;;
56102;SDS011;41970;48.774;9.280;2023-04-25T07:08:18;2.70;;;2.50;;
56102;SDS011;41970;48.774;9.280;2023-04-25T07:10:44;3.23;;;2.13;;
56102;SDS011;41970;48.774;9.280;2023-04-25T07:13:11;2.50;;;2.30;;
56102;SDS011;41970;48.774;9.280;2023-04-25T07:15:37;2.70;;;2.50;;
56102;SDS011;41970;48.774;9.280;2023-04-25T07:18:02;3.07;;;2.77;;
56102;SDS011;41970;48.774;9.280;2023-04-25T07:20:28;3.40;;;2.97;;
56102;SDS011;41970;48.774;9.280;2023-04-25T07:22:56;4.90;;;2.40;;
56102;SDS011;41970;48.774;9.280;2023-04-25T07:25:22;2.33;;;2.00;;
56102;SDS011;41970;48.774;9.280;2023-04-25T07:27:48;2.33;;;2.13;;
56102;SDS011;41970;48.774;9.280;2023-04-25T07:30:13;3.97;;;3.57;;
56102;SDS011;41970;48.774;9.280;2023-04-25T07:32:40;3.70;;;3.10;;
56102;SDS011;41970;48.774;9.280;2023-04-25T07:35:06;2.50;;;2.30;;
56102;SDS011;41970;48.774;9.280;2023-04-25T07:37:35;3.30;;;3.00;;
56102;SDS011;41970;48.774;9.280;2023-04-25T07:40:02;4.90;;;3.30;;
56102;SDS011;41970;48.774;9.280;2023-04-25T07:42:32;3.93;;;3.63;;
56102;SDS011;41970;48.774;9.280;2023-04-25T07:44:59;3.30;;;3.00;;
56102;SDS011;41970;48.774;9.280;2023-04-25T07:47:25;3.80;;;3.37;;
56102;SDS011;41970;48.774;9.280;2023-04-25T07:49:51;3.10;;;2.80;;
56102;SDS011;41970;48.774;9.280;2023-04-25T07:52:17;4.30;;;3.27;;
56102;SDS011;41970;48.774;9.280;2023-04-25T07:54:43;4.30;;;3.90;;
56102;SDS011;41970;48.774;9.280;2023-04-25T07:57:09;5.10;;;4.17;;
56102;SDS011;41970;48.774;9.280;2023-04-25T07:59:34;4.17;;;3.83;;
56102;SDS011;41970;48.774;9.280;2023-04-25T08:02:00;4.43;;;4.07;;
56102;SDS011;41970;48.774;9.280;2023-04-25T08:04:27;4.80;;;4.07;;
56102;SDS011;41970;48.774;9.280;2023-04-25T08:06:53;4.30;;;3.90;;
56102;SDS011;41970;48.774;9.280;2023-04-25T08:09:19;5.77;;;4.97;;
56102;SDS011;41970;48.774;9.280;2023-04-25T08:11:45;4.77;;;4.30;;
56102;SDS011;41970;48.774;9.280;2023-04-25T08:14:12;5.50;;;5.00;;
56102;SDS011;41970;48.774;9.280;2023-04-25T08:16:38;5.30;;;4.43;;
56102;SDS011;41970;48.774;9.280;2023-04-25T08:19:04;11.67;;;5.03;;
56102;SDS011;41970;48.774;9.280;2023-04-25T08:21:30;5.43;;;4.93;;
56102;SDS011;41970;48.774;9.280;2023-04-25T08:23:56;9.90;;;7.00;;
56102;SDS011;41970;48.774;9.280;2023-04-25T08:26:23;11.07;;;9.87;;
56102;SDS011;41970;48.774;9.280;2023-04-25T08:28:50;7.20;;;5.60;;
56102;SDS011;41970;48.774;9.280;2023-04-25T08:31:17;4.87;;;4.30;;
56102;SDS011;41970;48.774;9.280;2023-04-25T08:33:43;5.67;;;4.07;;
56102;SDS011;41970;48.774;9.280;2023-04-25T08:36:10;5.00;;;4.57;;
56102;SDS011;41970;48.774;9.280;2023-04-25T08:38:36;5.83;;;5.23;;
56102;SDS011;41970;48.774;9.280;2023-04-25T08:41:03;5.60;;;5.10;;
56102;SDS011;41970;48.774;9.280;2023-04-25T08:43:30;5.97;;;4.50;;
56102;SDS011;41970;48.774;9.280;2023-04-25T08:45:59;9.70;;;5.80;;
56102;SDS011;41970;48.774;9.280;2023-04-25T08:48:29;6.77;;;6.03;;
56102;SDS011;41970;48.774;9.280;2023-04-25T08:50:58;8.93;;;7.77;;
56102;SDS011;41970;48.774;9.280;2023-04-25T08:53:26;5.70;;;5.10;;
56102;SDS011;41970;48.774;9.280;2023-04-25T08:55:54;3.83;;;3.43;;
56102;SDS011;41970;48.774;9.280;2023-04-25T08:58:21;4.97;;;4.47;;
56102;SDS011;41970;48.774;9.280;2023-04-25T09:00:48;5.40;;;4.17;;
56102;SDS011;41970;48.774;9.280;2023-04-25T09:03:15;6.67;;;4.63;;
56102;SDS011;41970;48.774;9.280;2023-04-25T09:05:41;5.70;;;4.47;;
56102;SDS011;41970;48.774;9.280;2023-04-25T09:10:43;5.80;;;5.20;;
56102;SDS011;41970;48.774;9.280;2023-04-25T09:13:09;5.53;;;5.03;;
56102;SDS011;41970;48.774;9.280;2023-04-25T09:20:56;4.70;;;3.97;;
56102;SDS011;41970;48.774;9.280;2023-04-25T09:23:46;4.00;;;3.60;;
56102;SDS011;41970;48.774;9.280;2023-04-25T09:26:17;9.10;;;5.33;;
56102;SDS011;41970;48.774;9.280;2023-04-25T09:28:45;4.60;;;3.73;;
56102;SDS011;41970;48.774;9.280;2023-04-25T09:31:13;4.43;;;4.03;;
56102;SDS011;41970;48.774;9.280;2023-04-25T09:33:50;4.40;;;4.00;;
56102;SDS011;41970;48.774;9.280;2023-04-25T09:36:26;4.87;;;4.47;;
56102;SDS011;41970;48.774;9.280;2023-04-25T09:38:54;5.57;;;4.87;;
56102;SDS011;41970;48.774;9.280;2023-04-25T09:41:24;5.83;;;5.27;;
56102;SDS011;41970;48.774;9.280;2023-04-25T09:43:50;5.90;;;4.20;;
56102;SDS011;41970;48.774;9.280;2023-04-25T09:46:16;5.83;;;5.33;;
56102;SDS011;41970;48.774;9.280;2023-04-25T09:48:50;5.37;;;4.70;;
56102;SDS011;41970;48.774;9.280;2023-04-25T09:51:18;12.67;;;5.60;;
56102;SDS011;41970;48.774;9.280;2023-04-25T09:53:45;5.70;;;4.80;;
56102;SDS011;41970;48.774;9.280;2023-04-25T09:56:15;6.80;;;4.73;;
56102;SDS011;41970;48.774;9.280;2023-04-25T09:58:42;4.40;;;4.00;;
56102;SDS011;41970;48.774;9.280;2023-04-25T10:01:10;4.27;;;3.87;;
56102;SDS011;41970;48.774;9.280;2023-04-25T10:03:37;4.03;;;3.63;;
56102;SDS011;41970;48.774;9.280;2023-04-25T10:06:08;4.83;;;3.80;;
56102;SDS011;41970;48.774;9.280;2023-04-25T10:08:38;5.53;;;4.17;;
56102;SDS011;41970;48.774;9.280;2023-04-25T10:11:05;4.70;;;4.10;;
56102;SDS011;41970;48.774;9.280;2023-04-25T10:13:33;2.97;;;2.77;;
56102;SDS011;41970;48.774;9.280;2023-04-25T10:16:00;3.40;;;3.10;;
56102;SDS011;41970;48.774;9.280;2023-04-25T10:18:27;4.13;;;2.83;;
56102;SDS011;41970;48.774;9.280;2023-04-25T10:20:55;3.70;;;3.40;;
56102;SDS011;41970;48.774;9.280;2023-04-25T10:23:23;3.83;;;2.90;;
56102;SDS011;41970;48.774;9.280;2023-04-25T10:25:51;3.07;;;2.87;;
56102;SDS011;41970;48.774;9.280;2023-04-25T10:28:18;3.47;;;2.77;;
56102;SDS011;41970;48.774;9.280;2023-04-25T10:30:57;3.70;;;2.87;;
56102;SDS011;41970;48.774;9.280;2023-04-25T10:33:33;4.10;;;3.20;;
56102;SDS011;41970;48.774;9.280;2023-04-25T10:36:13;2.40;;;2.20;;
56102;SDS011;41970;48.774;9.280;2023-04-25T10:38:43;2.50;;;2.30;;
56102;SDS011;41970;48.774;9.280;2023-04-25T10:41:10;2.70;;;2.20;;
56102;SDS011;41970;48.774;9.280;2023-04-25T10:43:40;3.20;;;2.33;;
56102;SDS011;41970;48.774;9.280;2023-04-25T10:48:52;2.20;;;2.00;;
56102;SDS011;41970;48.774;9.280;2023-04-25T10:51:23;4.23;;;2.97;;
56102;SDS011;41970;48.774;9.280;2023-04-25T10:56:21;2.87;;;2.60;;
56102;SDS011;41970;48.774;9.280;2023-04-25T10:58:48;2.23;;;1.90;;
56102;SDS011;41970;48.774;9.280;2023-04-25T11:01:21;2.57;;;2.37;;
56102;SDS011;41970;48.774;9.280;2023-04-25T11:03:56;3.07;;;2.80;;
56102;SDS011;41970;48.774;9.280;2023-04-25T11:06:26;3.07;;;2.77;;
56102;SDS011;41970;48.774;9.280;2023-04-25T11:09:17;2.77;;;2.57;;
56102;SDS011;41970;48.774;9.280;2023-04-25T11:11:42;4.27;;;3.87;;
56102;SDS011;41970;48.774;9.280;2023-04-25T11:14:19;2.73;;;2.47;;
56102;SDS011;41970;48.774;9.280;2023-04-25T11:16:45;4.47;;;3.87;;
56102;SDS011;41970;48.774;9.280;2023-04-25T11:19:11;6.83;;;4.30;;
56102;SDS011;41970;48.774;9.280;2023-04-25T11:21:36;5.07;;;3.13;;
56102;SDS011;41970;48.774;9.280;2023-04-25T11:24:02;5.80;;;4.80;;
56102;SDS011;41970;48.774;9.280;2023-04-25T11:26:29;3.17;;;2.83;;
56102;SDS011;41970;48.774;9.280;2023-04-25T11:28:59;5.57;;;4.03;;
56102;SDS011;41970;48.774;9.280;2023-04-25T11:31:28;9.80;;;5.40;;
56102;SDS011;41970;48.774;9.280;2023-04-25T11:33:57;12.73;;;9.13;;
56102;SDS011;41970;48.774;9.280;2023-04-25T11:36:23;19.60;;;13.10;;
56102;SDS011;41970;48.774;9.280;2023-04-25T11:38:51;13.13;;;8.90;;
56102;SDS011;41970;48.774;9.280;2023-04-25T11:41:21;3.87;;;3.47;;
56102;SDS011;41970;48.774;9.280;2023-04-25T11:43:47;2.93;;;2.70;;
56102;SDS011;41970;48.774;9.280;2023-04-25T11:46:14;2.57;;;2.10;;
56102;SDS011;41970;48.774;9.280;2023-04-25T11:48:41;2.63;;;2.43;;
56102;SDS011;41970;48.774;9.280;2023-04-25T11:51:07;2.77;;;2.57;;
56102;SDS011;41970;48.774;9.280;2023-04-25T11:53:33;2.60;;;2.40;;
56102;SDS011;41970;48.774;9.280;2023-04-25T11:56:00;5.10;;;2.53;;
56102;SDS011;41970;48.774;9.280;2023-04-25T11:58:26;2.47;;;2.27;;
56102;SDS011;41970;48.774;9.280;2023-04-25T12:00:52;3.80;;;2.50;;
56102;SDS011;41970;48.774;9.280;2023-04-25T12:03:19;3.03;;;2.20;;
56102;SDS011;41970;48.774;9.280;2023-04-25T12:05:45;2.70;;;2.50;;
56102;SDS011;41970;48.774;9.280;2023-04-25T12:08:17;3.10;;;2.80;;
56102;SDS011;41970;48.774;9.280;2023-04-25T12:10:44;3.10;;;2.63;;
56102;SDS011;41970;48.774;9.280;2023-04-25T12:13:17;3.07;;;2.67;;
56102;SDS011;41970;48.774;9.280;2023-04-25T12:15:44;3.90;;;3.13;;
56102;SDS011;41970;48.774;9.280;2023-04-25T12:18:10;4.20;;;3.00;;
56102;SDS011;41970;48.774;9.280;2023-04-25T12:20:36;3.40;;;3.10;;
56102;SDS011;41970;48.774;9.280;2023-04-25T12:23:05;3.43;;;3.13;;
56102;SDS011;41970;48.774;9.280;2023-04-25T12:25:36;3.47;;;3.00;;
56102;SDS011;41970;48.774;9.280;2023-04-25T12:28:17;4.17;;;3.67;;
56102;SDS011;41970;48.774;9.280;2023-04-25T12:31:06;4.37;;;3.53;;
56102;SDS011;41970;48.774;9.280;2023-04-25T12:33:34;4.70;;;4.30;;
56102;SDS011;41970;48.774;9.280;2023-04-25T12:36:01;4.20;;;3.70;;
56102;SDS011;41970;48.774;9.280;2023-04-25T12:38:39;4.60;;;4.20;;
56102;SDS011;41970;48.774;9.280;2023-04-25T12:41:06;5.20;;;4.70;;
56102;SDS011;41970;48.774;9.280;2023-04-25T12:43:32;4.50;;;3.83;;
56102;SDS011;41970;48.774;9.280;2023-04-25T12:45:58;5.10;;;4.60;;
56102;SDS011;41970;48.774;9.280;2023-04-25T12:48:24;5.67;;;5.07;;
56102;SDS011;41970;48.774;9.280;2023-04-25T12:50:50;5.57;;;5.07;;
56102;SDS011;41970;48.774;9.280;2023-04-25T12:53:20;5.67;;;4.63;;
56102;SDS011;41970;48.774;9.280;2023-04-25T12:55:47;6.00;;;5.50;;
56102;SDS011;41970;48.774;9.280;2023-04-25T12:58:14;5.40;;;4.93;;
56102;SDS011;41970;48.774;9.280;2023-04-25T13:00:40;7.20;;;4.83;;
56102;SDS011;41970;48.774;9.280;2023-04-25T13:03:07;6.30;;;5.27;;
56102;SDS011;41970;48.774;9.280;2023-04-25T13:05:33;6.80;;;5.93;;
56102;SDS011;41970;48.774;9.280;2023-04-25T13:07:59;7.70;;;6.80;;
56102;SDS011;41970;48.774;9.280;2023-04-25T13:10:24;6.83;;;5.33;;
56102;SDS011;41970;48.774;9.280;2023-04-25T13:12:52;7.87;;;5.87;;
56102;SDS011;41970;48.774;9.280;2023-04-25T13:15:17;6.53;;;4.20;;
56102;SDS011;41970;48.774;9.280;2023-04-25T13:17:43;6.40;;;5.70;;
56102;SDS011;41970;48.774;9.280;2023-04-25T13:20:09;5.70;;;5.20;;
56102;SDS011;41970;48.774;9.280;2023-04-25T13:22:38;13.07;;;6.07;;
56102;SDS011;41970;48.774;9.280;2023-04-25T13:25:05;5.30;;;4.80;;
56102;SDS011;41970;48.774;9.280;2023-04-25T13:27:32;5.57;;;4.40;;
56102;SDS011;41970;48.774;9.280;2023-04-25T13:30:02;6.00;;;5.40;;
56102;SDS011;41970;48.774;9.280;2023-04-25T13:32:38;5.80;;;5.20;;
56102;SDS011;41970;48.774;9.280;2023-04-25T13:35:04;6.80;;;5.00;;
56102;SDS011;41970;48.774;9.280;2023-04-25T13:37:34;5.73;;;5.23;;
56102;SDS011;41970;48.774;9.280;2023-04-25T13:40:04;5.30;;;4.80;;
56102;SDS011;41970;48.774;9.280;2023-04-25T13:42:34;6.30;;;5.70;;
56102;SDS011;41970;48.774;9.280;2023-04-25T13:45:01;6.23;;;5.63;;
56102;SDS011;41970;48.774;9.280;2023-04-25T13:47:28;8.40;;;5.40;;
56102;SDS011;41970;48.774;9.280;2023-04-25T13:49:55;7.00;;;5.90;;
56102;SDS011;41970;48.774;9.280;2023-04-25T13:52:21;6.60;;;4.70;;
56102;SDS011;41970;48.774;9.280;2023-04-25T13:54:49;10.07;;;6.77;;
56102;SDS011;41970;48.774;9.280;2023-04-25T13:57:16;6.97;;;6.27;;
56102;SDS011;41970;48.774;9.280;2023-04-25T13:59:42;7.83;;;6.17;;
56102;SDS011;41970;48.774;9.280;2023-04-25T14:02:08;6.77;;;6.10;;
56102;SDS011;41970;48.774;9.280;2023-04-25T14:04:34;8.13;;;5.80;;
56102;SDS011;41970;48.774;9.280;2023-04-25T14:07:00;7.23;;;6.53;;
56102;SDS011;41970;48.774;9.280;2023-04-25T14:09:27;8.10;;;6.67;;
56102;SDS011;41970;48.774;9.280;2023-04-25T14:11:52;8.40;;;7.13;;
56102;SDS011;41970;48.774;9.280;2023-04-25T14:14:18;8.00;;;7.20;;
56102;SDS011;41970;48.774;9.280;2023-04-25T14:16:45;9.20;;;6.80;;
56102;SDS011;41970;48.774;9.280;2023-04-25T14:19:13;8.27;;;7.30;;
56102;SDS011;41970;48.774;9.280;2023-04-25T14:21:39;10.40;;;9.30;;
56102;SDS011;41970;48.774;9.280;2023-04-25T14:24:05;10.27;;;8.27;;
56102;SDS011;41970;48.774;9.280;2023-04-25T14:26:32;7.97;;;7.13;;
56102;SDS011;41970;48.774;9.280;2023-04-25T14:29:00;8.03;;;7.20;;
56102;SDS011;41970;48.774;9.280;2023-04-25T14:31:26;8.73;;;7.10;;
56102;SDS011;41970;48.774;9.280;2023-04-25T14:33:52;9.40;;;7.50;;
56102;SDS011;41970;48.774;9.280;2023-04-25T14:36:18;9.40;;;8.60;;
56102;SDS011;41970;48.774;9.280;2023-04-25T14:38:44;8.10;;;7.30;;
56102;SDS011;41970;48.774;9.280;2023-04-25T14:41:10;8.50;;;7.70;;
56102;SDS011;41970;48.774;9.280;2023-04-25T14:43:36;13.27;;;7.70;;
56102;SDS011;41970;48.774;9.280;2023-04-25T14:46:02;9.63;;;7.07;;
56102;SDS011;41970;48.774;9.280;2023-04-25T14:48:31;6.97;;;6.30;;
56102;SDS011;41970;48.774;9.280;2023-04-25T14:50:57;6.83;;;5.37;;
56102;SDS011;41970;48.774;9.280;2023-04-25T14:53:24;7.40;;;5.63;;
56102;SDS011;41970;48.774;9.280;2023-04-25T14:55:50;5.73;;;5.20;;
56102;SDS011;41970;48.774;9.280;2023-04-25T14:58:16;9.07;;;6.83;;
56102;SDS011;41970;48.774;9.280;2023-04-25T15:00:42;8.37;;;7.33;;